createdAt,value
2022-11-28T00:01:41.149Z,3.70
2022-11-28T00:04:08.969Z,3.80
2022-11-28T00:06:41.179Z,3.80
2022-11-28T00:09:09.075Z,3.90
2022-11-28T00:11:35.748Z,3.90
2022-11-28T00:14:02.483Z,3.90
2022-11-28T00:16:29.461Z,3.90
2022-11-28T00:18:56.287Z,3.90
2022-11-28T00:21:22.993Z,3.90
2022-11-28T00:23:50.755Z,3.90
2022-11-28T00:26:40.821Z,3.90
2022-11-28T00:29:08.652Z,4.00
2022-11-28T00:31:42.503Z,4.00
2022-11-28T00:34:11.952Z,4.00
2022-11-28T00:36:38.736Z,4.10
2022-11-28T00:39:05.930Z,4.10
2022-11-28T00:41:36.136Z,4.10
2022-11-28T00:44:02.829Z,4.10
2022-11-28T00:46:30.255Z,4.10
2022-11-28T00:48:58.571Z,4.20
2022-11-28T00:51:28.529Z,4.10
2022-11-28T00:53:57.906Z,4.10
2022-11-28T00:56:28.119Z,4.10
2022-11-28T00:58:55.047Z,4.10
2022-11-28T01:01:48.022Z,4.20
2022-11-28T01:04:17.491Z,4.20
2022-11-28T01:06:49.593Z,4.20
2022-11-28T01:09:20.909Z,4.20
2022-11-28T01:11:51.894Z,4.20
2022-11-28T01:14:20.526Z,4.20
2022-11-28T01:16:47.314Z,4.20
2022-11-28T01:19:14.692Z,4.20
2022-11-28T01:21:42.417Z,4.20
2022-11-28T01:24:09.893Z,4.20
2022-11-28T01:26:38.563Z,4.20
2022-11-28T01:29:05.460Z,4.20
2022-11-28T01:31:32.520Z,4.20
2022-11-28T01:33:59.612Z,4.20
2022-11-28T01:36:27.158Z,4.10
2022-11-28T01:38:54.248Z,4.10
2022-11-28T01:41:23.975Z,4.10
2022-11-28T01:44:17.031Z,4.00
2022-11-28T01:46:43.866Z,4.00
2022-11-28T01:49:15.477Z,4.00
2022-11-28T01:51:47.681Z,4.00
2022-11-28T01:54:18.735Z,3.90
2022-11-28T01:56:51.211Z,3.90
2022-11-28T01:59:20.201Z,3.90
2022-11-28T02:01:47.130Z,3.80
2022-11-28T02:04:14.430Z,3.80
2022-11-28T02:06:42.435Z,3.70
2022-11-28T02:09:14.025Z,3.70
2022-11-28T02:12:09.782Z,3.60
2022-11-28T02:15:21.526Z,3.60
2022-11-28T02:18:13.164Z,3.60
2022-11-28T02:21:02.935Z,3.60
2022-11-28T02:24:02.231Z,3.60
2022-11-28T02:27:07.745Z,3.60
2022-11-28T02:29:34.405Z,3.60
2022-11-28T02:32:38.642Z,3.60
2022-11-28T02:35:22.876Z,3.60
2022-11-28T02:38:23.942Z,3.60
2022-11-28T02:41:07.855Z,3.60
2022-11-28T02:43:37.256Z,3.60
2022-11-28T02:46:15.007Z,3.60
2022-11-28T02:49:07.257Z,3.60
2022-11-28T02:51:43.480Z,3.70
2022-11-28T02:54:14.489Z,3.70
2022-11-28T02:56:49.188Z,3.60
2022-11-28T02:59:38.913Z,3.70
2022-11-28T03:02:28.900Z,3.70
2022-11-28T03:05:35.157Z,3.70
2022-11-28T03:08:31.512Z,3.70
2022-11-28T03:11:21.557Z,3.70
2022-11-28T03:13:57.264Z,3.70
2022-11-28T03:16:30.041Z,3.70
2022-11-28T03:18:59.825Z,3.70
2022-11-28T03:21:41.425Z,3.60
2022-11-28T03:24:20.100Z,3.70
2022-11-28T03:26:52.936Z,3.70
2022-11-28T03:29:46.032Z,3.70
2022-11-28T03:32:27.072Z,3.70
2022-11-28T03:35:04.600Z,3.80
2022-11-28T03:37:33.773Z,3.80
2022-11-28T03:40:05.472Z,3.80
2022-11-28T03:42:38.297Z,3.80
2022-11-28T03:45:13.727Z,3.80
2022-11-28T03:47:54.156Z,3.80
2022-11-28T03:50:27.967Z,3.80
2022-11-28T03:53:03.752Z,3.80
2022-11-28T03:55:41.297Z,3.90
2022-11-28T03:58:13.781Z,3.90
2022-11-28T04:01:03.017Z,3.90
2022-11-28T04:03:54.991Z,3.90
2022-11-28T04:06:27.870Z,4.00
2022-11-28T04:09:20.019Z,4.00
2022-11-28T04:11:59.415Z,4.00
2022-11-28T04:14:34.683Z,4.10
2022-11-28T04:17:12.888Z,4.10
2022-11-28T04:19:49.660Z,4.10
2022-11-28T04:22:34.927Z,4.20
2022-11-28T04:25:06.900Z,4.20
2022-11-28T04:27:57.676Z,4.20
2022-11-28T04:30:24.392Z,4.20
2022-11-28T04:32:53.211Z,4.30
2022-11-28T04:35:26.857Z,4.30
2022-11-28T04:37:55.188Z,4.30
2022-11-28T04:40:24.683Z,4.30
2022-11-28T04:42:58.729Z,4.40
2022-11-28T04:45:35.978Z,4.40
2022-11-28T04:48:03.181Z,4.40
2022-11-28T04:50:56.048Z,4.50
2022-11-28T04:53:34.127Z,4.50
2022-11-28T04:56:07.901Z,4.60
2022-11-28T04:58:40.146Z,4.60
2022-11-28T05:01:10.216Z,4.60
2022-11-28T05:03:42.404Z,4.70
2022-11-28T05:06:09.763Z,4.60
2022-11-28T05:08:36.462Z,4.70
2022-11-28T05:11:03.069Z,4.60
2022-11-28T05:13:29.708Z,4.60
2022-11-28T05:16:00.499Z,4.60
2022-11-28T05:18:27.243Z,4.60
2022-11-28T05:20:53.934Z,4.60
2022-11-28T05:23:20.702Z,4.60
2022-11-28T05:25:47.358Z,4.60
2022-11-28T05:28:14.045Z,4.60
2022-11-28T05:30:40.739Z,4.60
2022-11-28T05:33:07.364Z,4.60
2022-11-28T05:35:33.987Z,4.60
2022-11-28T05:38:00.769Z,4.60
2022-11-28T05:40:27.422Z,4.60
2022-11-28T05:42:54.115Z,4.70
2022-11-28T05:45:21.027Z,4.70
2022-11-28T05:47:47.831Z,4.70
2022-11-28T05:50:14.483Z,4.70
2022-11-28T05:52:41.151Z,4.70
2022-11-28T05:55:08.424Z,4.80
2022-11-28T05:57:35.117Z,4.80
2022-11-28T06:00:01.960Z,4.80
2022-11-28T06:02:38.502Z,4.80
2022-11-28T06:05:27.155Z,4.80
2022-11-28T06:07:52.276Z,4.80
2022-11-28T06:10:19.136Z,4.80
2022-11-28T06:12:45.869Z,4.80
2022-11-28T06:15:12.466Z,4.90
2022-11-28T06:17:39.215Z,4.90
2022-11-28T06:20:07.489Z,5.00
2022-11-28T06:22:34.712Z,5.00
2022-11-28T06:25:01.488Z,5.00
2022-11-28T06:27:28.825Z,5.00
2022-11-28T06:29:55.483Z,5.00
2022-11-28T06:32:22.393Z,5.00
2022-11-28T06:34:49.161Z,5.00
2022-11-28T06:37:15.831Z,5.00
2022-11-28T06:39:42.809Z,4.90
2022-11-28T06:42:09.744Z,4.90
2022-11-28T06:44:36.447Z,4.90
2022-11-28T06:47:03.100Z,4.90
2022-11-28T06:49:29.862Z,4.90
2022-11-28T06:51:56.465Z,4.90
2022-11-28T06:54:23.164Z,4.80
2022-11-28T06:56:49.775Z,4.90
2022-11-28T06:59:16.662Z,4.80
2022-11-28T07:01:43.434Z,4.80
2022-11-28T07:04:10.349Z,4.80
2022-11-28T07:06:36.940Z,4.70
2022-11-28T07:09:03.882Z,4.70
2022-11-28T07:11:31.658Z,4.70
2022-11-28T07:14:00.844Z,4.70
2022-11-28T07:16:30.954Z,4.70
2022-11-28T07:18:59.116Z,4.60
2022-11-28T07:21:27.186Z,4.60
2022-11-28T07:23:53.891Z,4.60
2022-11-28T07:26:21.862Z,4.60
2022-11-28T07:28:50.263Z,4.60
2022-11-28T07:31:22.726Z,4.60
2022-11-28T07:33:51.078Z,4.60
2022-11-28T07:36:23.332Z,4.50
2022-11-28T07:38:52.942Z,4.60
2022-11-28T07:41:25.962Z,4.60
2022-11-28T07:43:56.246Z,4.50
2022-11-28T07:46:24.038Z,4.60
2022-11-28T07:48:50.922Z,4.60
2022-11-28T07:51:20.850Z,4.60
2022-11-28T07:53:47.709Z,4.60
2022-11-28T07:56:17.136Z,4.70
2022-11-28T07:58:45.867Z,4.70
2022-11-28T08:01:15.110Z,4.70
2022-11-28T08:03:42.348Z,4.70
2022-11-28T08:06:09.309Z,4.80
2022-11-28T08:08:36.336Z,5.00
2022-11-28T08:11:05.772Z,5.00
2022-11-28T08:13:33.306Z,5.10
2022-11-28T08:16:07.916Z,5.10
2022-11-28T08:18:35.863Z,5.10
2022-11-28T08:21:05.084Z,5.10
2022-11-28T08:23:34.479Z,5.10
2022-11-28T08:26:02.347Z,5.20
2022-11-28T08:28:29.506Z,5.20
2022-11-28T08:30:56.542Z,5.20
2022-11-28T08:33:24.570Z,5.30
2022-11-28T08:35:54.317Z,5.30
2022-11-28T08:38:21.057Z,5.40
2022-11-28T08:40:47.712Z,5.40
2022-11-28T08:43:14.634Z,5.40
2022-11-28T08:45:41.332Z,5.50
2022-11-28T08:48:07.988Z,5.50
2022-11-28T08:50:34.669Z,5.60
2022-11-28T08:53:07.841Z,5.60
2022-11-28T08:55:39.109Z,5.70
2022-11-28T08:58:08.807Z,5.70
2022-11-28T09:00:35.840Z,5.80
2022-11-28T09:03:02.501Z,5.90
2022-11-28T09:05:30.009Z,6.00
2022-11-28T09:07:57.960Z,6.00
2022-11-28T09:10:25.366Z,6.10
2022-11-28T09:12:52.301Z,6.20
2022-11-28T09:15:19.114Z,6.30
2022-11-28T09:17:46.324Z,6.40
2022-11-28T09:20:13.566Z,6.50
2022-11-28T09:22:42.469Z,6.60
2022-11-28T09:25:09.327Z,6.70
2022-11-28T09:27:36.052Z,6.80
2022-11-28T09:30:02.819Z,6.80
2022-11-28T09:32:29.401Z,6.90
2022-11-28T09:34:56.163Z,7.00
2022-11-28T09:37:22.880Z,7.00
2022-11-28T09:40:12.035Z,7.10
2022-11-28T09:42:44.456Z,7.10
2022-11-28T09:45:21.244Z,7.20
2022-11-28T09:47:52.492Z,7.30
2022-11-28T09:50:23.531Z,7.30
2022-11-28T09:53:15.098Z,7.40
2022-11-28T09:55:44.962Z,7.40
2022-11-28T09:58:26.678Z,7.50
2022-11-28T10:01:19.682Z,7.50
2022-11-28T10:04:04.501Z,7.50
2022-11-28T10:06:39.505Z,7.60
2022-11-28T10:09:21.405Z,7.70
2022-11-28T10:12:12.944Z,7.70
2022-11-28T10:14:54.989Z,7.80
2022-11-28T10:17:45.320Z,7.90
2022-11-28T10:20:23.360Z,7.90
2022-11-28T10:23:15.728Z,8.00
2022-11-28T10:25:51.156Z,8.10
2022-11-28T10:28:37.227Z,8.10
2022-11-28T10:31:25.271Z,8.20
2022-11-28T10:34:07.163Z,8.40
2022-11-28T10:36:55.885Z,8.40
2022-11-28T10:39:25.603Z,8.50
2022-11-28T10:42:14.127Z,8.60
2022-11-28T10:44:58.085Z,8.70
2022-11-28T10:47:53.184Z,8.80
2022-11-28T10:50:37.477Z,8.90
2022-11-28T10:53:25.532Z,8.90
2022-11-28T10:56:11.393Z,9.00
2022-11-28T10:58:54.873Z,9.10
2022-11-28T11:01:22.077Z,9.10
2022-11-28T11:03:49.668Z,9.20
2022-11-28T11:06:16.371Z,9.30
2022-11-28T11:08:45.286Z,9.30
2022-11-28T11:11:38.945Z,9.30
2022-11-28T11:14:08.847Z,9.40
2022-11-28T11:16:48.552Z,9.40
2022-11-28T11:19:33.943Z,9.40
2022-11-28T11:22:21.296Z,9.50
2022-11-28T11:25:13.054Z,9.50
2022-11-28T11:27:49.566Z,9.50
2022-11-28T11:30:29.720Z,9.50
2022-11-28T11:32:58.437Z,9.50
2022-11-28T11:35:36.627Z,9.50
2022-11-28T11:38:15.264Z,9.50
2022-11-28T11:40:42.301Z,9.60
2022-11-28T11:43:32.630Z,9.50
2022-11-28T11:46:10.448Z,9.60
2022-11-28T11:48:41.208Z,9.60
2022-11-28T11:51:38.018Z,9.60
2022-11-28T11:54:16.543Z,9.70
2022-11-28T11:56:45.937Z,9.70
2022-11-28T11:59:21.442Z,9.70
2022-11-28T12:01:52.850Z,9.80
2022-11-28T12:04:45.787Z,9.80
2022-11-28T12:07:30.386Z,9.80
2022-11-28T12:10:03.184Z,9.80
2022-11-28T12:12:35.973Z,9.80
2022-11-28T12:15:03.009Z,9.80
2022-11-28T12:17:59.147Z,9.80
2022-11-28T12:20:51.035Z,9.80
2022-11-28T12:23:40.551Z,9.80
2022-11-28T12:26:16.156Z,9.80
2022-11-28T12:29:37.419Z,9.70
2022-11-28T12:32:25.130Z,9.80
2022-11-28T12:34:51.799Z,9.70
2022-11-28T12:37:37.322Z,9.80
2022-11-28T12:40:37.948Z,9.70
2022-11-28T12:43:42.651Z,9.70
2022-11-28T12:46:34.158Z,9.80
2022-11-28T12:49:09.730Z,9.80
2022-11-28T12:52:14.778Z,9.80
2022-11-28T12:54:58.760Z,9.80
2022-11-28T12:57:40.044Z,9.90
2022-11-28T13:00:19.035Z,9.90
2022-11-28T13:03:05.005Z,9.90
2022-11-28T13:05:54.186Z,9.90
2022-11-28T13:08:33.401Z,9.90
2022-11-28T13:11:18.554Z,9.90
2022-11-28T13:14:11.336Z,9.90
2022-11-28T13:16:46.628Z,9.90
2022-11-28T13:19:27.425Z,9.90
2022-11-28T13:21:54.064Z,9.90
2022-11-28T13:24:27.565Z,9.90
2022-11-28T13:27:06.805Z,9.90
2022-11-28T13:30:06.781Z,9.90
2022-11-28T13:32:43.719Z,9.80
2022-11-28T13:35:19.316Z,9.80
2022-11-28T13:38:41.702Z,9.80
2022-11-28T13:41:35.362Z,9.80
2022-11-28T13:44:46.899Z,9.70
2022-11-28T13:47:21.001Z,9.70
2022-11-28T13:49:48.043Z,9.70
2022-11-28T13:52:17.712Z,9.70
2022-11-28T13:54:54.572Z,9.70
2022-11-28T13:57:38.197Z,9.60
2022-11-28T14:00:24.281Z,9.60
2022-11-28T14:02:59.893Z,9.60
2022-11-28T14:05:39.151Z,9.60
2022-11-28T14:08:07.236Z,9.50
2022-11-28T14:10:57.272Z,9.50
2022-11-28T14:13:43.977Z,9.50
2022-11-28T14:16:28.728Z,9.50
2022-11-28T14:19:25.005Z,9.40
2022-11-28T14:22:22.003Z,9.40
2022-11-28T14:25:16.756Z,9.40
2022-11-28T14:27:57.087Z,9.40
2022-11-28T14:30:38.875Z,9.30
2022-11-28T14:33:26.592Z,9.30
2022-11-28T14:35:53.338Z,9.30
2022-11-28T14:38:41.508Z,9.30
2022-11-28T14:41:12.687Z,9.20
2022-11-28T14:43:46.276Z,9.20
2022-11-28T14:46:16.058Z,9.10
2022-11-28T14:49:14.973Z,9.10
2022-11-28T14:51:48.138Z,9.00
2022-11-28T14:54:35.049Z,8.90
2022-11-28T14:57:17.969Z,8.90
2022-11-28T14:59:45.769Z,8.90
2022-11-28T15:02:12.812Z,8.90
2022-11-28T15:05:20.339Z,8.80
2022-11-28T15:08:16.909Z,8.70
2022-11-28T15:11:09.211Z,8.70
2022-11-28T15:13:52.725Z,8.60
2022-11-28T15:16:21.384Z,8.50
2022-11-28T15:18:54.982Z,8.50
2022-11-28T15:21:23.025Z,8.40
2022-11-28T15:23:52.517Z,8.40
2022-11-28T15:26:28.292Z,8.30
2022-11-28T15:29:16.748Z,8.30
2022-11-28T15:31:44.334Z,8.20
2022-11-28T15:34:11.304Z,8.10
2022-11-28T15:36:39.321Z,8.00
2022-11-28T15:39:30.674Z,7.90
2022-11-28T15:42:00.324Z,7.90
2022-11-28T15:44:28.048Z,7.80
2022-11-28T15:46:55.794Z,7.70
2022-11-28T15:49:42.977Z,7.60
2022-11-28T15:52:18.855Z,7.50
2022-11-28T15:54:51.438Z,7.50
2022-11-28T15:57:28.607Z,7.40
2022-11-28T15:59:56.567Z,7.40
2022-11-28T16:02:34.949Z,7.30
2022-11-28T16:05:08.708Z,7.30
2022-11-28T16:07:41.234Z,7.20
2022-11-28T16:10:23.684Z,7.20
2022-11-28T16:12:51.934Z,7.20
2022-11-28T16:15:21.278Z,7.10
2022-11-28T16:17:48.868Z,7.10
2022-11-28T16:20:24.629Z,7.00
2022-11-28T16:23:02.515Z,7.00
2022-11-28T16:25:30.263Z,7.00
2022-11-28T16:27:57.603Z,6.90
2022-11-28T16:30:41.526Z,6.90
2022-11-28T16:33:39.166Z,6.90
2022-11-28T16:36:20.110Z,6.90
2022-11-28T16:38:49.156Z,6.90
2022-11-28T16:41:25.189Z,6.90
2022-11-28T16:43:59.668Z,6.80
2022-11-28T16:46:39.016Z,6.80
2022-11-28T16:49:09.084Z,6.80
2022-11-28T16:51:40.777Z,6.70
2022-11-28T16:54:25.758Z,6.70
2022-11-28T16:56:57.627Z,6.70
2022-11-28T16:59:25.472Z,6.70
2022-11-28T17:01:53.593Z,6.70
2022-11-28T17:04:27.787Z,6.70
2022-11-28T17:06:56.934Z,6.70
2022-11-28T17:09:23.967Z,6.60
2022-11-28T17:12:02.941Z,6.70
2022-11-28T17:14:29.683Z,6.60
2022-11-28T17:16:56.370Z,6.60
2022-11-28T17:19:23.081Z,6.60
2022-11-28T17:21:52.443Z,6.60
2022-11-28T17:24:22.240Z,6.60
2022-11-28T17:26:50.315Z,6.60
2022-11-28T17:29:17.844Z,6.60
2022-11-28T17:31:46.964Z,6.60
2022-11-28T17:34:23.047Z,6.60
2022-11-28T17:36:50.196Z,6.60
2022-11-28T17:39:17.465Z,6.60
2022-11-28T17:41:44.712Z,6.60
2022-11-28T17:44:20.544Z,6.60
2022-11-28T17:46:48.863Z,6.60
2022-11-28T17:49:15.700Z,6.50
2022-11-28T17:51:43.266Z,6.50
2022-11-28T17:54:17.800Z,6.50
2022-11-28T17:56:52.501Z,6.50
2022-11-28T17:59:21.380Z,6.50
2022-11-28T18:01:48.963Z,6.50
2022-11-28T18:04:16.346Z,6.50
2022-11-28T18:06:44.727Z,6.50
2022-11-28T18:09:12.756Z,6.50
2022-11-28T18:11:41.197Z,6.50
2022-11-28T18:14:09.005Z,6.40
2022-11-28T18:16:36.129Z,6.40
2022-11-28T18:19:04.163Z,6.40
2022-11-28T18:21:31.513Z,6.40
2022-11-28T18:23:58.937Z,6.40
2022-11-28T18:26:26.081Z,6.40
2022-11-28T18:28:53.694Z,6.40
2022-11-28T18:31:23.167Z,6.30
2022-11-28T18:33:50.620Z,6.30
2022-11-28T18:36:20.872Z,6.30
2022-11-28T18:38:48.465Z,6.30
2022-11-28T18:41:17.739Z,6.30
2022-11-28T18:43:45.907Z,6.20
2022-11-28T18:46:17.294Z,6.20
2022-11-28T18:48:46.351Z,6.30
2022-11-28T18:51:14.209Z,6.20
2022-11-28T18:53:41.413Z,6.20
2022-11-28T18:56:08.741Z,6.20
2022-11-28T18:58:37.512Z,6.20
2022-11-28T19:01:18.870Z,6.20
2022-11-28T19:03:50.457Z,6.20
2022-11-28T19:06:18.794Z,6.20
2022-11-28T19:08:45.872Z,6.10
2022-11-28T19:11:15.444Z,6.10
2022-11-28T19:13:43.803Z,6.20
2022-11-28T19:16:13.316Z,6.10
2022-11-28T19:18:41.462Z,6.10
2022-11-28T19:21:11.441Z,6.10
2022-11-28T19:23:38.813Z,6.10
2022-11-28T19:26:08.430Z,6.10
2022-11-28T19:28:36.369Z,6.10
2022-11-28T19:31:27.917Z,6.10
2022-11-28T19:34:03.948Z,6.10
2022-11-28T19:36:37.526Z,6.10
2022-11-28T19:39:04.924Z,6.10
2022-11-28T19:41:33.705Z,6.10
2022-11-28T19:44:01.083Z,6.10
2022-11-28T19:46:35.041Z,6.10
2022-11-28T19:49:04.299Z,6.10
2022-11-28T19:51:31.033Z,6.10
2022-11-28T19:54:02.854Z,6.10
2022-11-28T19:56:32.311Z,6.10
2022-11-28T19:58:59.559Z,6.10
2022-11-28T20:01:28.189Z,6.10
2022-11-28T20:03:55.507Z,6.10
2022-11-28T20:06:23.145Z,6.00
2022-11-28T20:08:51.621Z,6.00
2022-11-28T20:11:26.408Z,6.00
2022-11-28T20:14:15.228Z,6.00
2022-11-28T20:16:42.477Z,6.00
2022-11-28T20:19:10.922Z,6.00
2022-11-28T20:21:37.817Z,6.00
2022-11-28T20:24:07.230Z,6.00
2022-11-28T20:26:39.049Z,6.00
2022-11-28T20:29:06.838Z,6.00
2022-11-28T20:31:41.784Z,6.00
2022-11-28T20:34:08.859Z,6.00
2022-11-28T20:36:36.208Z,6.00
2022-11-28T20:39:04.656Z,6.00
2022-11-28T20:41:32.176Z,6.00
2022-11-28T20:44:00.571Z,6.10
2022-11-28T20:46:33.439Z,6.10
2022-11-28T20:49:02.205Z,6.10
2022-11-28T20:51:31.030Z,6.10
2022-11-28T20:53:58.586Z,6.10
2022-11-28T20:56:29.578Z,6.10
2022-11-28T20:58:58.989Z,6.10
2022-11-28T21:01:27.952Z,6.10
2022-11-28T21:03:54.688Z,6.10
2022-11-28T21:06:21.468Z,6.10
2022-11-28T21:08:48.120Z,6.10
2022-11-28T21:11:43.326Z,6.10
2022-11-28T21:14:07.388Z,6.10
2022-11-28T21:16:34.880Z,6.10
2022-11-28T21:19:05.181Z,6.10
2022-11-28T21:21:34.242Z,6.10
2022-11-28T21:24:04.271Z,6.10
2022-11-28T21:26:33.062Z,6.10
2022-11-28T21:29:07.406Z,6.10
2022-11-28T21:31:37.063Z,6.10
2022-11-28T21:34:04.090Z,6.10
2022-11-28T21:36:32.175Z,6.10
2022-11-28T21:39:00.736Z,6.10
2022-11-28T21:41:30.098Z,6.10
2022-11-28T21:43:58.342Z,6.10
2022-11-28T21:46:25.957Z,6.10
2022-11-28T21:48:53.456Z,6.10
2022-11-28T21:51:23.494Z,6.10
2022-11-28T21:53:50.761Z,6.10
2022-11-28T21:56:17.944Z,6.10
2022-11-28T21:58:44.805Z,6.10
2022-11-28T22:01:14.294Z,6.20
2022-11-28T22:03:43.608Z,6.10
2022-11-28T22:06:27.145Z,6.20
2022-11-28T22:08:54.572Z,6.20
2022-11-28T22:11:24.027Z,6.20
2022-11-28T22:13:52.645Z,6.20
2022-11-28T22:16:22.658Z,6.20
2022-11-28T22:18:50.579Z,6.20
2022-11-28T22:24:05.682Z,6.20
2022-11-28T22:26:32.548Z,6.20
2022-11-28T22:28:59.293Z,6.20
2022-11-28T22:31:26.560Z,6.20
2022-11-28T22:33:53.326Z,6.10
2022-11-28T22:36:21.347Z,6.20
2022-11-28T22:38:49.688Z,6.10
2022-11-28T22:41:24.851Z,6.20
2022-11-28T22:43:56.434Z,6.20
2022-11-28T22:46:23.684Z,6.20
2022-11-28T22:48:51.754Z,6.20
2022-11-28T22:51:21.213Z,6.20
2022-11-28T22:53:48.104Z,6.20
2022-11-28T22:56:15.735Z,6.20
2022-11-28T22:58:44.463Z,6.30
2022-11-28T23:01:17.335Z,6.30
2022-11-28T23:03:44.546Z,6.30
2022-11-28T23:06:14.479Z,6.30
2022-11-28T23:08:42.217Z,6.20
2022-11-28T23:11:13.282Z,6.30
2022-11-28T23:13:40.831Z,6.30
2022-11-28T23:16:09.944Z,6.20
2022-11-28T23:18:37.099Z,6.20
2022-11-28T23:21:04.048Z,6.20
2022-11-28T23:23:32.264Z,6.20
2022-11-28T23:26:05.324Z,6.20
2022-11-28T23:28:33.852Z,6.20
2022-11-28T23:31:06.454Z,6.20
2022-11-28T23:33:33.486Z,6.20
2022-11-28T23:36:00.163Z,6.30
2022-11-28T23:38:27.062Z,6.20
2022-11-28T23:40:57.104Z,6.20
2022-11-28T23:43:23.817Z,6.20
2022-11-28T23:45:50.500Z,6.20
2022-11-28T23:48:17.251Z,6.20
2022-11-28T23:50:44.176Z,6.20
2022-11-28T23:53:10.979Z,6.20
2022-11-28T23:55:37.579Z,6.20
2022-11-28T23:58:04.472Z,6.20
